createdAt,value
2023-05-14T00:00:20.888Z,6.50
2023-05-14T00:02:55.271Z,6.40
2023-05-14T00:05:29.261Z,6.87
2023-05-14T00:08:04.550Z,5.77
2023-05-14T00:10:38.779Z,7.00
2023-05-14T00:13:14.463Z,7.00
2023-05-14T00:15:48.259Z,6.33
2023-05-14T00:18:22.308Z,6.10
2023-05-14T00:20:58.473Z,5.70
2023-05-14T00:23:32.210Z,5.63
2023-05-14T00:26:06.672Z,5.50
2023-05-14T00:28:42.268Z,6.03
2023-05-14T00:31:16.062Z,8.67
2023-05-14T00:33:49.624Z,8.83
2023-05-14T00:36:23.552Z,9.33
2023-05-14T00:38:58.016Z,6.77
2023-05-14T00:41:33.099Z,6.67
2023-05-14T00:44:08.380Z,7.67
2023-05-14T00:46:43.783Z,7.20
2023-05-14T00:49:18.734Z,6.03
2023-05-14T00:51:53.215Z,5.47
2023-05-14T00:54:30.828Z,8.07
2023-05-14T00:57:08.412Z,7.03
2023-05-14T00:59:44.061Z,9.90
2023-05-14T01:02:18.155Z,7.10
2023-05-14T01:04:52.495Z,6.27
2023-05-14T01:07:39.521Z,5.87
2023-05-14T01:10:18.890Z,7.03
2023-05-14T01:13:06.234Z,6.20
2023-05-14T01:15:44.243Z,6.00
2023-05-14T01:18:21.635Z,6.67
2023-05-14T01:20:56.701Z,6.43
2023-05-14T01:23:32.008Z,6.03
2023-05-14T01:26:06.370Z,5.90
2023-05-14T01:28:41.441Z,5.63
2023-05-14T01:31:26.578Z,5.33
2023-05-14T01:34:03.689Z,5.20
2023-05-14T01:36:39.960Z,5.27
2023-05-14T01:39:16.626Z,8.20
2023-05-14T01:41:51.756Z,5.43
2023-05-14T01:44:26.125Z,6.77
2023-05-14T01:47:00.936Z,6.80
2023-05-14T01:49:37.262Z,6.07
2023-05-14T01:52:11.546Z,7.13
2023-05-14T01:54:47.934Z,5.67
2023-05-14T01:57:23.157Z,5.47
2023-05-14T01:59:56.811Z,5.83
2023-05-14T02:02:30.446Z,5.77
2023-05-14T02:05:06.794Z,5.57
2023-05-14T02:07:42.005Z,5.97
2023-05-14T02:10:17.185Z,5.90
2023-05-14T02:12:53.568Z,6.90
2023-05-14T02:15:27.253Z,6.60
2023-05-14T02:18:00.900Z,6.17
2023-05-14T02:20:34.958Z,7.03
2023-05-14T02:23:09.142Z,5.70
2023-05-14T02:25:45.216Z,6.10
2023-05-14T02:28:21.103Z,6.50
2023-05-14T02:31:01.035Z,6.50
2023-05-14T02:33:35.244Z,6.30
2023-05-14T02:36:09.601Z,6.03
2023-05-14T02:38:44.718Z,6.70
2023-05-14T02:41:20.184Z,5.90
2023-05-14T02:43:55.121Z,5.40
2023-05-14T02:46:29.748Z,7.27
2023-05-14T02:49:03.458Z,5.30
2023-05-14T02:51:37.150Z,6.10
2023-05-14T02:54:11.014Z,7.13
2023-05-14T02:56:47.355Z,5.27
2023-05-14T02:59:22.437Z,6.63
2023-05-14T03:01:56.819Z,5.07
2023-05-14T03:04:30.465Z,5.60
2023-05-14T03:07:05.212Z,5.30
2023-05-14T03:09:41.261Z,5.83
2023-05-14T03:12:16.530Z,5.90
2023-05-14T03:14:50.434Z,5.73
2023-05-14T03:17:24.032Z,6.40
2023-05-14T03:19:59.389Z,6.00
2023-05-14T03:22:33.197Z,5.63
2023-05-14T03:25:17.974Z,7.07
2023-05-14T03:27:53.493Z,4.53
2023-05-14T03:30:27.424Z,5.23
2023-05-14T03:33:03.438Z,5.70
2023-05-14T03:35:38.998Z,5.33
2023-05-14T03:38:14.585Z,5.70
2023-05-14T03:40:48.730Z,7.03
2023-05-14T03:43:24.625Z,6.60
2023-05-14T03:45:58.397Z,6.50
2023-05-14T03:48:32.332Z,5.40
2023-05-14T03:51:06.519Z,5.20
2023-05-14T03:53:40.515Z,6.50
2023-05-14T03:56:16.502Z,5.93
2023-05-14T03:58:53.595Z,5.40
2023-05-14T04:01:27.781Z,7.17
2023-05-14T04:04:01.513Z,6.80
2023-05-14T04:06:36.569Z,5.97
2023-05-14T04:09:11.002Z,5.80
2023-05-14T04:11:45.099Z,6.07
2023-05-14T04:14:21.526Z,5.37
2023-05-14T04:16:56.122Z,7.13
2023-05-14T04:19:33.934Z,5.17
2023-05-14T04:22:08.210Z,6.23
2023-05-14T04:24:42.001Z,5.83
2023-05-14T04:27:22.483Z,7.47
2023-05-14T04:29:57.388Z,5.97
2023-05-14T04:32:31.480Z,7.23
2023-05-14T04:35:06.401Z,5.80
2023-05-14T04:37:54.335Z,4.63
2023-05-14T04:40:31.430Z,5.50
2023-05-14T04:43:06.614Z,5.53
2023-05-14T04:45:43.137Z,4.93
2023-05-14T04:48:18.762Z,4.80
2023-05-14T04:50:56.161Z,5.90
2023-05-14T04:53:29.975Z,5.50
2023-05-14T04:56:04.074Z,6.00
2023-05-14T04:58:38.510Z,5.80
2023-05-14T05:01:14.202Z,6.00
2023-05-14T05:03:58.194Z,5.80
2023-05-14T05:06:35.424Z,5.90
2023-05-14T05:09:11.243Z,6.67
2023-05-14T05:11:47.667Z,6.03
2023-05-14T05:14:24.816Z,6.23
2023-05-14T05:17:00.793Z,6.03
2023-05-14T05:19:43.834Z,6.17
2023-05-14T05:22:19.093Z,6.30
2023-05-14T05:25:05.692Z,6.27
2023-05-14T05:27:40.479Z,5.30
2023-05-14T05:30:14.717Z,5.50
2023-05-14T05:32:52.405Z,6.20
2023-05-14T05:35:29.137Z,6.27
2023-05-14T05:38:02.805Z,6.70
2023-05-14T05:40:37.264Z,6.57
2023-05-14T05:43:11.457Z,8.27
2023-05-14T05:45:46.000Z,7.93
2023-05-14T05:48:22.276Z,7.43
2023-05-14T05:50:56.421Z,6.87
2023-05-14T05:53:30.805Z,6.90
2023-05-14T05:56:04.521Z,7.57
2023-05-14T05:58:38.425Z,7.43
2023-05-14T06:01:12.759Z,6.60
2023-05-14T06:03:51.368Z,7.17
2023-05-14T06:06:26.900Z,6.83
2023-05-14T06:09:01.880Z,6.60
2023-05-14T06:11:36.436Z,7.10
2023-05-14T06:14:10.052Z,7.03
2023-05-14T06:16:44.229Z,6.70
2023-05-14T06:19:19.442Z,7.63
2023-05-14T06:21:53.658Z,7.40
2023-05-14T06:24:27.042Z,6.40
2023-05-14T06:27:00.729Z,6.27
2023-05-14T06:29:36.934Z,7.77
2023-05-14T06:32:11.017Z,7.33
2023-05-14T06:34:46.120Z,6.07
2023-05-14T06:37:20.024Z,7.50
2023-05-14T06:39:55.262Z,7.17
2023-05-14T06:42:30.990Z,5.87
2023-05-14T06:45:05.741Z,5.50
2023-05-14T06:47:40.685Z,5.63
2023-05-14T06:50:41.680Z,6.33
2023-05-14T06:53:16.195Z,5.13
2023-05-14T06:55:50.978Z,5.67
2023-05-14T06:58:26.935Z,5.03
2023-05-14T07:01:01.043Z,4.33
2023-05-14T07:03:34.955Z,4.87
2023-05-14T07:06:12.514Z,5.17
2023-05-14T07:08:47.562Z,3.87
2023-05-14T07:11:22.584Z,5.07
2023-05-14T07:13:56.862Z,4.87
2023-05-14T07:16:30.605Z,3.77
2023-05-14T07:19:04.487Z,3.63
2023-05-14T07:21:40.404Z,4.30
2023-05-14T07:24:14.542Z,4.20
2023-05-14T07:26:48.233Z,4.80
2023-05-14T07:29:21.821Z,4.23
2023-05-14T07:31:55.484Z,6.50
2023-05-14T07:34:29.282Z,4.27
2023-05-14T07:37:04.838Z,3.83
2023-05-14T07:39:38.482Z,3.53
2023-05-14T07:42:19.327Z,3.20
2023-05-14T07:44:58.463Z,3.13
2023-05-14T07:47:32.367Z,3.47
2023-05-14T07:50:07.828Z,3.07
2023-05-14T07:52:46.242Z,3.83
2023-05-14T07:55:22.127Z,2.53
2023-05-14T07:57:57.452Z,2.40
2023-05-14T08:00:32.540Z,2.20
2023-05-14T08:03:07.881Z,2.17
2023-05-14T08:05:41.607Z,2.67
2023-05-14T08:08:17.168Z,2.23
2023-05-14T08:10:52.436Z,4.43
2023-05-14T08:13:26.277Z,2.40
2023-05-14T08:16:00.474Z,2.00
2023-05-14T08:18:34.664Z,2.87
2023-05-14T08:21:08.943Z,2.10
2023-05-14T08:23:44.120Z,1.73
2023-05-14T08:26:18.530Z,2.97
2023-05-14T08:28:51.956Z,3.23
2023-05-14T08:31:28.225Z,2.37
2023-05-14T08:34:02.056Z,4.03
2023-05-14T08:36:36.244Z,1.55
2023-05-14T08:39:11.886Z,1.42
2023-05-14T08:41:46.621Z,1.40
2023-05-14T08:44:22.809Z,1.73
2023-05-14T08:46:57.242Z,1.85
2023-05-14T08:49:41.703Z,1.50
2023-05-14T08:52:17.468Z,1.48
2023-05-14T08:54:55.040Z,1.85
2023-05-14T08:57:31.356Z,2.88
2023-05-14T09:00:08.439Z,1.67
2023-05-14T09:02:43.364Z,1.45
2023-05-14T09:05:20.675Z,1.48
2023-05-14T09:07:54.800Z,2.05
2023-05-14T09:10:30.229Z,1.20
2023-05-14T09:13:08.012Z,1.58
2023-05-14T09:15:43.984Z,1.52
2023-05-14T09:18:18.358Z,1.23
2023-05-14T09:20:54.084Z,1.92
2023-05-14T09:23:28.390Z,1.45
2023-05-14T09:26:08.858Z,1.40
2023-05-14T09:28:43.524Z,2.90
2023-05-14T09:31:17.873Z,1.65
2023-05-14T09:33:54.852Z,1.65
2023-05-14T09:36:31.081Z,1.52
2023-05-14T09:39:06.555Z,3.50
2023-05-14T09:41:44.811Z,2.30
2023-05-14T09:44:20.516Z,2.22
2023-05-14T09:46:55.051Z,1.73
2023-05-14T09:49:31.815Z,3.20
2023-05-14T09:52:08.591Z,1.75
2023-05-14T09:54:42.480Z,3.35
2023-05-14T09:57:17.417Z,1.48
2023-05-14T09:59:51.397Z,1.52
2023-05-14T10:02:30.452Z,1.50
2023-05-14T10:05:08.800Z,1.38
2023-05-14T10:07:50.707Z,1.40
2023-05-14T10:10:31.103Z,7.90
2023-05-14T10:13:14.013Z,2.53
2023-05-14T10:15:58.561Z,2.17
2023-05-14T10:18:41.450Z,1.80
2023-05-14T10:21:18.096Z,1.67
2023-05-14T10:23:53.578Z,1.50
2023-05-14T10:26:28.603Z,1.42
2023-05-14T10:29:04.836Z,3.05
2023-05-14T10:31:55.548Z,2.35
2023-05-14T10:34:40.752Z,2.47
2023-05-14T10:37:17.665Z,1.70
2023-05-14T10:39:55.082Z,1.70
2023-05-14T10:42:33.352Z,1.58
2023-05-14T10:45:16.936Z,1.77
2023-05-14T10:47:52.539Z,2.17
2023-05-14T10:50:28.569Z,1.50
2023-05-14T10:53:04.022Z,1.88
2023-05-14T10:55:39.836Z,1.70
2023-05-14T10:58:16.572Z,4.28
2023-05-14T11:00:56.865Z,2.00
2023-05-14T11:03:33.515Z,1.80
2023-05-14T11:06:10.335Z,2.10
2023-05-14T11:08:46.582Z,2.55
2023-05-14T11:11:20.952Z,2.53
2023-05-14T11:13:58.429Z,1.80
2023-05-14T11:16:35.398Z,1.90
2023-05-14T11:19:10.289Z,2.67
2023-05-14T11:21:44.105Z,4.20
2023-05-14T11:24:21.057Z,1.60
2023-05-14T11:26:58.465Z,1.80
2023-05-14T11:29:32.326Z,2.33
2023-05-14T11:32:09.103Z,1.95
2023-05-14T11:34:45.081Z,1.77
2023-05-14T11:37:21.152Z,1.95
2023-05-14T11:39:58.341Z,2.25
2023-05-14T11:42:34.041Z,1.73
2023-05-14T11:45:12.992Z,1.98
2023-05-14T11:47:48.808Z,1.95
2023-05-14T11:50:25.054Z,3.50
2023-05-14T11:52:59.461Z,2.38
2023-05-14T11:55:36.391Z,1.85
2023-05-14T11:58:10.276Z,1.73
2023-05-14T12:00:46.966Z,2.08
2023-05-14T12:03:26.135Z,2.95
2023-05-14T12:06:01.594Z,2.28
2023-05-14T12:08:35.841Z,1.67
2023-05-14T12:11:12.242Z,1.67
2023-05-14T12:13:47.501Z,1.70
2023-05-14T12:16:22.833Z,3.53
2023-05-14T12:19:02.249Z,2.20
2023-05-14T12:21:37.215Z,2.08
2023-05-14T12:24:13.057Z,1.73
2023-05-14T12:26:47.934Z,2.15
2023-05-14T12:29:27.378Z,2.30
2023-05-14T12:32:04.432Z,1.55
2023-05-14T12:34:40.540Z,2.28
2023-05-14T12:37:14.597Z,1.52
2023-05-14T12:39:48.618Z,1.30
2023-05-14T12:42:23.499Z,2.10
2023-05-14T12:45:04.259Z,2.00
2023-05-14T12:47:38.446Z,1.88
2023-05-14T12:50:13.955Z,2.15
2023-05-14T12:52:48.273Z,1.52
2023-05-14T12:55:24.061Z,2.17
2023-05-14T12:57:59.784Z,1.58
2023-05-14T13:00:33.239Z,1.77
2023-05-14T13:03:06.740Z,3.33
2023-05-14T13:05:42.758Z,1.88
2023-05-14T13:08:18.062Z,1.30
2023-05-14T13:10:53.849Z,2.35
2023-05-14T13:13:29.430Z,2.28
2023-05-14T13:16:03.914Z,1.63
2023-05-14T13:18:38.959Z,1.38
2023-05-14T13:21:14.554Z,1.50
2023-05-14T13:23:49.028Z,1.92
2023-05-14T13:26:28.078Z,1.65
2023-05-14T13:29:04.924Z,1.58
2023-05-14T13:31:38.786Z,1.17
2023-05-14T13:34:13.463Z,1.70
2023-05-14T13:36:50.007Z,1.35
2023-05-14T13:39:27.187Z,1.63
2023-05-14T13:42:01.375Z,1.10
2023-05-14T13:44:36.351Z,1.10
2023-05-14T13:47:12.742Z,1.42
2023-05-14T13:49:58.709Z,1.05
2023-05-14T13:52:34.126Z,1.50
2023-05-14T13:55:09.915Z,0.90
2023-05-14T13:57:44.425Z,2.60
2023-05-14T14:00:19.023Z,1.48
2023-05-14T14:02:52.983Z,1.65
2023-05-14T14:05:28.883Z,1.08
2023-05-14T14:08:17.909Z,2.05
2023-05-14T14:10:56.517Z,1.83
2023-05-14T14:13:34.530Z,0.98
2023-05-14T14:16:08.488Z,0.90
2023-05-14T14:18:43.769Z,1.10
2023-05-14T14:21:18.576Z,1.27
2023-05-14T14:23:54.036Z,1.40
2023-05-14T14:26:29.130Z,4.50
2023-05-14T14:29:02.943Z,1.15
2023-05-14T14:31:39.353Z,1.10
2023-05-14T14:34:15.122Z,1.65
2023-05-14T14:36:48.580Z,1.42
2023-05-14T14:39:25.369Z,2.10
2023-05-14T14:42:00.629Z,1.02
2023-05-14T14:44:34.135Z,3.40
2023-05-14T14:47:08.725Z,2.38
2023-05-14T14:49:42.245Z,1.10
2023-05-14T14:52:15.724Z,1.35
2023-05-14T14:54:52.988Z,1.23
2023-05-14T14:57:28.123Z,1.17
2023-05-14T15:00:02.691Z,0.90
2023-05-14T15:02:38.784Z,1.33
2023-05-14T15:05:12.413Z,1.05
2023-05-14T15:07:46.497Z,1.00
2023-05-14T15:10:22.087Z,1.10
2023-05-14T15:12:57.121Z,0.90
2023-05-14T15:15:32.568Z,1.27
2023-05-14T15:18:07.033Z,1.27
2023-05-14T15:20:41.150Z,4.68
2023-05-14T15:23:16.352Z,1.60
2023-05-14T15:25:51.734Z,1.10
2023-05-14T15:28:27.072Z,1.15
2023-05-14T15:31:02.866Z,1.17
2023-05-14T15:33:38.089Z,1.80
2023-05-14T15:36:13.533Z,1.77
2023-05-14T15:38:47.860Z,1.35
2023-05-14T15:41:25.747Z,1.40
2023-05-14T15:44:04.106Z,2.00
2023-05-14T15:46:38.541Z,1.00
2023-05-14T15:49:13.793Z,1.35
2023-05-14T15:51:47.357Z,1.55
2023-05-14T15:54:21.068Z,1.25
2023-05-14T15:56:57.288Z,1.55
2023-05-14T15:59:30.815Z,1.15
2023-05-14T16:02:05.864Z,1.30
2023-05-14T16:04:40.242Z,1.55
2023-05-14T16:07:15.566Z,1.33
2023-05-14T16:09:51.238Z,1.40
2023-05-14T16:12:26.575Z,2.90
2023-05-14T16:15:03.445Z,1.30
2023-05-14T16:17:37.380Z,2.63
2023-05-14T16:20:14.127Z,2.92
2023-05-14T16:22:49.250Z,1.73
2023-05-14T16:25:23.115Z,1.70
2023-05-14T16:27:58.510Z,1.60
2023-05-14T16:30:33.232Z,2.08
2023-05-14T16:33:06.888Z,1.55
2023-05-14T16:35:42.796Z,1.30
2023-05-14T16:38:17.283Z,1.42
2023-05-14T16:40:50.695Z,1.65
2023-05-14T16:43:26.088Z,1.45
2023-05-14T16:46:00.091Z,1.63
2023-05-14T16:48:35.007Z,1.33
2023-05-14T16:51:09.748Z,1.42
2023-05-14T16:53:43.616Z,1.45
2023-05-14T16:56:17.627Z,1.65
2023-05-14T16:58:52.767Z,1.55
2023-05-14T17:01:28.970Z,1.55
2023-05-14T17:04:02.951Z,1.77
2023-05-14T17:06:37.084Z,1.73
2023-05-14T17:09:10.664Z,1.67
2023-05-14T17:11:44.633Z,1.88
2023-05-14T17:14:19.793Z,1.65
2023-05-14T17:16:53.927Z,2.10
2023-05-14T17:19:27.620Z,1.73
2023-05-14T17:22:04.476Z,1.60
2023-05-14T17:24:39.810Z,1.83
2023-05-14T17:27:18.975Z,1.85
2023-05-14T17:29:54.281Z,1.58
2023-05-14T17:32:31.948Z,1.50
2023-05-14T17:35:06.645Z,1.77
2023-05-14T17:37:43.117Z,2.28
2023-05-14T17:40:17.120Z,1.67
2023-05-14T17:42:50.980Z,1.50
2023-05-14T17:45:26.663Z,2.13
2023-05-14T17:48:01.091Z,2.55
2023-05-14T17:50:34.868Z,2.05
2023-05-14T17:53:08.710Z,1.38
2023-05-14T17:55:43.982Z,1.65
2023-05-14T17:58:17.868Z,3.03
2023-05-14T18:00:53.241Z,1.63
2023-05-14T18:03:27.315Z,2.22
2023-05-14T18:06:01.299Z,2.17
2023-05-14T18:08:36.717Z,3.53
2023-05-14T18:11:10.618Z,1.77
2023-05-14T18:13:45.676Z,1.70
2023-05-14T18:16:21.056Z,2.13
2023-05-14T18:18:56.592Z,1.58
2023-05-14T18:21:31.146Z,1.30
2023-05-14T18:24:04.733Z,3.35
2023-05-14T18:26:38.087Z,1.48
2023-05-14T18:29:11.988Z,2.30
2023-05-14T18:31:47.346Z,2.92
2023-05-14T18:34:20.955Z,2.67
2023-05-14T18:36:54.530Z,2.03
2023-05-14T18:39:30.504Z,1.90
2023-05-14T18:42:04.130Z,2.55
2023-05-14T18:44:39.441Z,1.65
2023-05-14T18:47:14.268Z,4.25
2023-05-14T18:49:50.708Z,1.92
2023-05-14T18:52:24.781Z,1.58
2023-05-14T18:54:59.401Z,1.70
2023-05-14T18:57:34.138Z,2.35
2023-05-14T19:00:10.387Z,2.33
2023-05-14T19:02:46.961Z,1.98
2023-05-14T19:05:21.008Z,2.45
2023-05-14T19:07:54.891Z,2.05
2023-05-14T19:10:28.420Z,1.92
2023-05-14T19:13:04.375Z,2.28
2023-05-14T19:15:38.733Z,1.50
2023-05-14T19:18:17.720Z,2.00
2023-05-14T19:20:51.991Z,2.22
2023-05-14T19:23:26.140Z,2.97
2023-05-14T19:26:00.413Z,2.47
2023-05-14T19:28:35.973Z,1.35
2023-05-14T19:31:09.794Z,1.08
2023-05-14T19:33:44.875Z,1.40
2023-05-14T19:36:18.639Z,2.63
2023-05-14T19:38:53.537Z,1.98
2023-05-14T19:41:28.090Z,1.33
2023-05-14T19:44:01.555Z,1.73
2023-05-14T19:46:36.620Z,2.22
2023-05-14T19:49:12.075Z,2.10
2023-05-14T19:51:45.437Z,2.45
2023-05-14T19:54:21.416Z,1.75
2023-05-14T19:56:56.220Z,1.70
2023-05-14T19:59:30.409Z,1.77
2023-05-14T20:02:04.758Z,2.20
2023-05-14T20:04:41.295Z,2.10
2023-05-14T20:07:15.714Z,2.43
2023-05-14T20:09:49.295Z,3.27
2023-05-14T20:12:23.139Z,2.53
2023-05-14T20:14:57.077Z,3.50
2023-05-14T20:17:31.583Z,3.20
2023-05-14T20:20:10.214Z,1.70
2023-05-14T20:22:45.152Z,1.67
2023-05-14T20:25:19.368Z,1.70
2023-05-14T20:27:53.268Z,1.60
2023-05-14T20:30:27.779Z,2.00
2023-05-14T20:33:01.647Z,2.00
2023-05-14T20:35:37.372Z,1.90
2023-05-14T20:38:13.726Z,2.20
2023-05-14T20:40:47.991Z,1.93
2023-05-14T20:43:22.328Z,2.30
2023-05-14T20:46:00.474Z,1.90
2023-05-14T20:48:34.390Z,1.53
2023-05-14T20:51:12.585Z,1.53
2023-05-14T20:53:46.934Z,3.20
2023-05-14T20:56:21.000Z,2.87
2023-05-14T20:58:54.607Z,2.40
2023-05-14T21:01:28.088Z,2.80
2023-05-14T21:04:02.304Z,1.60
2023-05-14T21:06:37.660Z,1.50
2023-05-14T21:09:12.190Z,1.83
2023-05-14T21:11:46.074Z,1.60
2023-05-14T21:14:21.598Z,1.90
2023-05-14T21:16:55.350Z,1.50
2023-05-14T21:19:30.468Z,2.33
2023-05-14T21:22:08.996Z,7.93
2023-05-14T21:24:44.232Z,2.23
2023-05-14T21:27:18.124Z,2.43
2023-05-14T21:29:51.580Z,1.60
2023-05-14T21:32:25.943Z,2.17
2023-05-14T21:35:00.802Z,1.93
2023-05-14T21:37:36.460Z,1.90
2023-05-14T21:40:12.349Z,1.70
2023-05-14T21:42:46.282Z,1.43
2023-05-14T21:45:23.642Z,1.70
2023-05-14T21:48:00.138Z,2.07
2023-05-14T21:50:36.312Z,1.90
2023-05-14T21:53:11.442Z,1.90
2023-05-14T21:55:45.234Z,2.13
2023-05-14T21:58:19.348Z,1.57
2023-05-14T22:00:53.022Z,1.60
2023-05-14T22:03:27.760Z,1.60
2023-05-14T22:06:01.754Z,2.03
2023-05-14T22:08:36.752Z,1.67
2023-05-14T22:11:10.509Z,1.77
2023-05-14T22:13:44.006Z,2.00
2023-05-14T22:16:19.565Z,2.10
2023-05-14T22:18:53.333Z,3.00
2023-05-14T22:21:27.990Z,2.03
2023-05-14T22:24:03.710Z,1.40
2023-05-14T22:26:37.953Z,1.67
2023-05-14T22:29:11.322Z,1.87
2023-05-14T22:31:44.803Z,2.80
2023-05-14T22:34:19.592Z,2.10
2023-05-14T22:36:53.882Z,1.97
2023-05-14T22:39:29.039Z,4.70
2023-05-14T22:42:02.621Z,2.13
2023-05-14T22:44:37.182Z,2.40
2023-05-14T22:47:11.177Z,2.97
2023-05-14T22:49:44.966Z,2.13
2023-05-14T22:52:20.323Z,3.27
2023-05-14T22:54:55.769Z,2.50
2023-05-14T22:57:32.874Z,2.33
2023-05-14T23:00:09.382Z,3.00
2023-05-14T23:02:43.417Z,2.70
2023-05-14T23:05:18.213Z,3.27
2023-05-14T23:07:52.258Z,3.40
2023-05-14T23:10:28.986Z,2.70
2023-05-14T23:13:02.498Z,2.33
2023-05-14T23:15:36.630Z,2.63
2023-05-14T23:18:12.140Z,3.30
2023-05-14T23:20:49.352Z,3.50
2023-05-14T23:23:23.606Z,3.57
2023-05-14T23:25:58.743Z,2.73
2023-05-14T23:28:33.481Z,2.93
2023-05-14T23:31:07.492Z,2.67
2023-05-14T23:33:41.096Z,2.27
2023-05-14T23:36:14.999Z,2.17
2023-05-14T23:38:50.335Z,6.97
2023-05-14T23:41:25.166Z,3.27
2023-05-14T23:43:58.862Z,2.43
2023-05-14T23:46:32.732Z,2.83
2023-05-14T23:49:07.018Z,2.37
2023-05-14T23:51:40.774Z,3.00
2023-05-14T23:54:17.236Z,3.27
2023-05-14T23:56:52.816Z,2.90
2023-05-14T23:59:26.680Z,2.93
